DAL1582 TBPB-SVMI
Flight info
| Callsign | DAL1582 |
|---|---|
| Flight time | N/A |
| Altitude | FL280 |
| Route | RAKAN A561 GND DAREK MTA NETSI1 |
| Aircraft | MD82/M-S/NAEXS |
Departure
| Time | 2026-05-08 04:06 |
|---|---|
| Airport | Grantley Adams International Airport (TBPB) |
Arrival
| Time | N/A |
|---|---|
| Airport | Maiquetía Simón Bolívar International Airport (SVMI) |
| Time | Latitude | Longitude | Altitude | Speed | Heading |
|---|---|---|---|---|---|
| 2026-05-08 03:21 | 13.07881 | -59.48686 | 177 ft | 0 kts | 346° |
| 2026-05-08 03:57 | 13.07877 | -59.48685 | 177 ft | 2 kts | 346° |
| 2026-05-08 03:57 | 13.07861 | -59.48681 | 177 ft | 3 kts | 346° |
| 2026-05-08 03:58 | 13.07842 | -59.48677 | 177 ft | 3 kts | 346° |
| 2026-05-08 03:58 | 13.07823 | -59.48672 | 177 ft | 3 kts | 344° |
| 2026-05-08 03:58 | 13.07808 | -59.48660 | 177 ft | 3 kts | 297° |
| 2026-05-08 03:58 | 13.07805 | -59.48641 | 177 ft | 1 kts | 257° |
| 2026-05-08 03:59 | 13.07805 | -59.48640 | 177 ft | 0 kts | 257° |
| 2026-05-08 03:59 | 13.07805 | -59.48643 | 177 ft | 1 kts | 257° |
| 2026-05-08 03:59 | 13.07802 | -59.48659 | 177 ft | 3 kts | 261° |
| 2026-05-08 04:00 | 13.07799 | -59.48690 | 177 ft | 6 kts | 261° |
| 2026-05-08 04:00 | 13.07781 | -59.48733 | 177 ft | 8 kts | 236° |
| 2026-05-08 04:00 | 13.07744 | -59.48781 | 177 ft | 9 kts | 237° |
| 2026-05-08 04:00 | 13.07717 | -59.48850 | 177 ft | 11 kts | 255° |
| 2026-05-08 04:01 | 13.07697 | -59.48935 | 177 ft | 14 kts | 256° |
| 2026-05-08 04:01 | 13.07673 | -59.49036 | 177 ft | 16 kts | 256° |
| 2026-05-08 04:01 | 13.07645 | -59.49151 | 177 ft | 18 kts | 256° |
| 2026-05-08 04:01 | 13.07614 | -59.49279 | 177 ft | 20 kts | 255° |
| 2026-05-08 04:02 | 13.07578 | -59.49421 | 177 ft | 22 kts | 255° |
| 2026-05-08 04:02 | 13.07538 | -59.49576 | 177 ft | 23 kts | 255° |
| 2026-05-08 04:02 | 13.07495 | -59.49742 | 177 ft | 25 kts | 257° |
| 2026-05-08 04:02 | 13.07453 | -59.49923 | 177 ft | 27 kts | 256° |
| 2026-05-08 04:03 | 13.07406 | -59.50115 | 177 ft | 29 kts | 257° |
| 2026-05-08 04:03 | 13.07304 | -59.50533 | 177 ft | 32 kts | 255° |
| 2026-05-08 04:03 | 13.07257 | -59.50708 | 177 ft | 11 kts | 246° |
| 2026-05-08 04:04 | 13.07206 | -59.50723 | 177 ft | 7 kts | 167° |
| 2026-05-08 04:04 | 13.07150 | -59.50710 | 177 ft | 9 kts | 167° |
| 2026-05-08 04:04 | 13.07105 | -59.50671 | 177 ft | 10 kts | 91° |
| 2026-05-08 04:04 | 13.07111 | -59.50639 | 177 ft | 0 kts | 74° |
| 2026-05-08 04:05 | 13.07136 | -59.50546 | 177 ft | 37 kts | 75° |
| 2026-05-08 04:05 | 13.07245 | -59.50105 | 177 ft | 90 kts | 77° |
| 2026-05-08 04:05 | 13.07373 | -59.49584 | 177 ft | 125 kts | 76° |
| 2026-05-08 04:05 | 13.07464 | -59.49223 | 177 ft | 146 kts | 71° |
| 2026-05-08 04:06 | 13.07723 | -59.48052 | 238 ft | 188 kts | 78° |
| 2026-05-08 04:06 | 13.08120 | -59.46661 | 491 ft | 218 kts | 76° |
| 2026-05-08 04:06 | 13.08551 | -59.45203 | 1531 ft | 211 kts | 76° |
| 2026-05-08 04:06 | 13.08941 | -59.43807 | 2398 ft | 209 kts | 78° |
| 2026-05-08 04:07 | 13.09223 | -59.42293 | 2649 ft | 229 kts | 89° |
| 2026-05-08 04:07 | 13.09259 | -59.40607 | 3008 ft | 248 kts | 93° |
| 2026-05-08 04:07 | 13.08784 | -59.38871 | 3437 ft | 258 kts | 125° |
| 2026-05-08 04:07 | 13.07414 | -59.37742 | 4154 ft | 256 kts | 160° |
| 2026-05-08 04:08 | 13.05675 | -59.37610 | 4897 ft | 256 kts | 193° |
| 2026-05-08 04:08 | 13.04144 | -59.38517 | 5616 ft | 261 kts | 226° |
| 2026-05-08 04:08 | 13.03346 | -59.40177 | 6338 ft | 268 kts | 258° |
| 2026-05-08 04:08 | 13.03383 | -59.42089 | 7192 ft | 268 kts | 272° |
| 2026-05-08 04:09 | 13.03518 | -59.44022 | 7803 ft | 278 kts | 271° |
| 2026-05-08 04:09 | 13.03526 | -59.45730 | 8447 ft | 277 kts | 259° |
| 2026-05-08 04:09 | 13.02902 | -59.47586 | 9258 ft | 272 kts | 243° |
| 2026-05-08 04:09 | 13.02084 | -59.49359 | 9947 ft | 277 kts | 242° |
| 2026-05-08 04:10 | 13.01245 | -59.51150 | 10532 ft | 285 kts | 242° |
| 2026-05-08 04:10 | 13.00379 | -59.53035 | 10764 ft | 306 kts | 243° |
| 2026-05-08 04:10 | 12.99485 | -59.55052 | 11402 ft | 311 kts | 243° |
| 2026-05-08 04:10 | 12.98605 | -59.57110 | 12105 ft | 316 kts | 244° |
| 2026-05-08 04:11 | 12.97742 | -59.59198 | 12734 ft | 321 kts | 244° |
| 2026-05-08 04:11 | 12.96884 | -59.61308 | 13428 ft | 324 kts | 245° |
| 2026-05-08 04:11 | 12.96012 | -59.63436 | 14057 ft | 328 kts | 244° |
| 2026-05-08 04:11 | 12.95107 | -59.65608 | 14686 ft | 332 kts | 244° |
| 2026-05-08 04:12 | 12.94204 | -59.67792 | 15295 ft | 336 kts | 244° |
| 2026-05-08 04:12 | 12.93299 | -59.70004 | 15933 ft | 338 kts | 244° |
| 2026-05-08 04:12 | 12.92390 | -59.72212 | 16560 ft | 340 kts | 244° |
| 2026-05-08 04:12 | 12.91451 | -59.74464 | 17108 ft | 345 kts | 244° |
| 2026-05-08 04:13 | 12.90526 | -59.76689 | 17640 ft | 349 kts | 244° |
| 2026-05-08 04:13 | 12.89561 | -59.79021 | 18200 ft | 353 kts | 244° |
| 2026-05-08 04:13 | 12.88603 | -59.81334 | 18778 ft | 355 kts | 244° |
| 2026-05-08 04:13 | 12.87633 | -59.83678 | 19289 ft | 360 kts | 244° |
| 2026-05-08 04:14 | 12.86656 | -59.86051 | 19803 ft | 363 kts | 244° |
| 2026-05-08 04:14 | 12.85671 | -59.88437 | 20351 ft | 365 kts | 244° |
| 2026-05-08 04:14 | 12.84686 | -59.90819 | 20857 ft | 368 kts | 244° |
| 2026-05-08 04:14 | 12.83679 | -59.93262 | 21317 ft | 372 kts | 244° |
| 2026-05-08 04:15 | 12.82676 | -59.95699 | 21815 ft | 374 kts | 244° |
| 2026-05-08 04:15 | 12.81660 | -59.98171 | 22341 ft | 376 kts | 244° |
| 2026-05-08 04:15 | 12.80753 | -60.00375 | 22725 ft | 379 kts | 244° |
| 2026-05-08 04:15 | 12.79653 | -60.03048 | 23201 ft | 382 kts | 245° |
| 2026-05-08 04:16 | 12.78623 | -60.05564 | 23648 ft | 384 kts | 245° |
| 2026-05-08 04:16 | 12.77579 | -60.08092 | 24071 ft | 386 kts | 244° |
| 2026-05-08 04:16 | 12.76538 | -60.10613 | 24446 ft | 389 kts | 245° |
| 2026-05-08 04:16 | 12.75488 | -60.13166 | 24837 ft | 391 kts | 245° |
| 2026-05-08 04:17 | 12.74422 | -60.15748 | 25207 ft | 394 kts | 244° |
| 2026-05-08 04:17 | 12.73355 | -60.18331 | 25614 ft | 394 kts | 245° |
| 2026-05-08 04:17 | 12.72300 | -60.20889 | 26073 ft | 394 kts | 245° |
| 2026-05-08 04:17 | 12.71250 | -60.23421 | 26409 ft | 396 kts | 244° |
| 2026-05-08 04:18 | 12.70152 | -60.26061 | 26481 ft | 398 kts | 244° |
| 2026-05-08 04:18 | 12.69141 | -60.28515 | 19470 ft | 261 kts | 244° |
| 2026-05-08 04:18 | 12.69900 | -60.27159 | 5174 ft | 551 kts | 63° |
| 2026-05-08 04:18 | 12.71759 | -60.23355 | 398 ft | 605 kts | 65° |
| 2026-05-08 04:19 | 12.73400 | -60.19863 | 1672 ft | 487 kts | 67° |
| 2026-05-08 04:19 | 12.74089 | -60.17128 | 5236 ft | 310 kts | 87° |
| 2026-05-08 04:19 | 12.74004 | -60.15212 | 7676 ft | 244 kts | 103° |
| 2026-05-08 04:19 | 12.73237 | -60.13801 | 8484 ft | 220 kts | 142° |
| 2026-05-08 04:20 | 12.71918 | -60.13281 | 9359 ft | 198 kts | 182° |
| 2026-05-08 04:20 | 12.70744 | -60.13789 | 10215 ft | 180 kts | 224° |
| 2026-05-08 04:20 | 12.70124 | -60.14913 | 10606 ft | 194 kts | 242° |
| 2026-05-08 04:20 | 12.69592 | -60.16309 | 10425 ft | 232 kts | 246° |
| 2026-05-08 04:21 | 12.69037 | -60.17984 | 10452 ft | 262 kts | 249° |
| 2026-05-08 04:21 | 12.68476 | -60.19863 | 10615 ft | 287 kts | 250° |
| 2026-05-08 04:21 | 12.67904 | -60.21867 | 10906 ft | 306 kts | 251° |
| 2026-05-08 04:21 | 12.67305 | -60.23998 | 11531 ft | 313 kts | 251° |
| 2026-05-08 04:22 | 12.66697 | -60.26166 | 12370 ft | 317 kts | 250° |
| 2026-05-08 04:22 | 12.66073 | -60.28337 | 13289 ft | 318 kts | 250° |
| 2026-05-08 04:22 | 12.65444 | -60.30497 | 14163 ft | 321 kts | 250° |
| 2026-05-08 04:22 | 12.64795 | -60.32713 | 14931 ft | 326 kts | 250° |
| 2026-05-08 04:23 | 12.64140 | -60.34939 | 15678 ft | 330 kts | 250° |
| 2026-05-08 04:23 | 12.63471 | -60.37208 | 16404 ft | 334 kts | 250° |
| 2026-05-08 04:23 | 12.62814 | -60.39492 | 17176 ft | 336 kts | 251° |
| 2026-05-08 04:23 | 12.62174 | -60.41750 | 17908 ft | 338 kts | 251° |
| 2026-05-08 04:24 | 12.61497 | -60.44102 | 18563 ft | 342 kts | 250° |
| 2026-05-08 04:24 | 12.60811 | -60.46443 | 19201 ft | 346 kts | 250° |
| 2026-05-08 04:24 | 12.60115 | -60.48800 | 19772 ft | 350 kts | 250° |
| 2026-05-08 04:24 | 12.59413 | -60.51203 | 20382 ft | 353 kts | 250° |
| 2026-05-08 04:25 | 12.58710 | -60.53613 | 20966 ft | 357 kts | 250° |
| 2026-05-08 04:25 | 12.57850 | -60.56000 | 21479 ft | 359 kts | 244° |
| 2026-05-08 04:25 | 12.56815 | -60.58321 | 22033 ft | 361 kts | 241° |
| 2026-05-08 04:25 | 12.55690 | -60.60619 | 22540 ft | 364 kts | 240° |
| 2026-05-08 04:26 | 12.54521 | -60.62933 | 23046 ft | 366 kts | 240° |
| 2026-05-08 04:26 | 12.53364 | -60.65243 | 23632 ft | 366 kts | 240° |
| 2026-05-08 04:26 | 12.52226 | -60.67563 | 24036 ft | 370 kts | 241° |
| 2026-05-08 04:26 | 12.51084 | -60.69948 | 24485 ft | 373 kts | 242° |
| 2026-05-08 04:27 | 12.49973 | -60.72329 | 24926 ft | 374 kts | 243° |
| 2026-05-08 04:27 | 12.48866 | -60.74739 | 25357 ft | 376 kts | 243° |
| 2026-05-08 04:27 | 12.47757 | -60.77160 | 25754 ft | 377 kts | 243° |
| 2026-05-08 04:27 | 12.46642 | -60.79579 | 26153 ft | 378 kts | 243° |
| 2026-05-08 04:28 | 12.45498 | -60.82006 | 26529 ft | 380 kts | 242° |
| 2026-05-08 04:28 | 12.44350 | -60.84448 | 26883 ft | 381 kts | 243° |
| 2026-05-08 04:28 | 12.43205 | -60.86891 | 27162 ft | 385 kts | 243° |
| 2026-05-08 04:28 | 12.42055 | -60.89343 | 27486 ft | 386 kts | 243° |
| 2026-05-08 04:29 | 12.40910 | -60.91783 | 27757 ft | 387 kts | 243° |
| 2026-05-08 04:29 | 12.39723 | -60.94306 | 27897 ft | 391 kts | 243° |
| 2026-05-08 04:29 | 12.38524 | -60.96843 | 27918 ft | 398 kts | 243° |
| 2026-05-08 04:29 | 12.37320 | -60.99397 | 27918 ft | 403 kts | 243° |
| 2026-05-08 04:30 | 12.36112 | -61.01997 | 27915 ft | 407 kts | 243° |
| 2026-05-08 04:30 | 12.34892 | -61.04611 | 27915 ft | 410 kts | 243° |
| 2026-05-08 04:30 | 12.33655 | -61.07246 | 27913 ft | 413 kts | 243° |
| 2026-05-08 04:30 | 12.32420 | -61.09890 | 27914 ft | 416 kts | 243° |
| 2026-05-08 04:31 | 12.31170 | -61.12567 | 27914 ft | 418 kts | 243° |
| 2026-05-08 04:31 | 12.29920 | -61.15234 | 27913 ft | 420 kts | 243° |
| 2026-05-08 04:31 | 12.28662 | -61.17934 | 27911 ft | 422 kts | 242° |
| 2026-05-08 04:31 | 12.27391 | -61.20645 | 27909 ft | 422 kts | 242° |
| 2026-05-08 04:32 | 12.26116 | -61.23341 | 27909 ft | 421 kts | 242° |
| 2026-05-08 04:32 | 12.24849 | -61.26049 | 27911 ft | 422 kts | 242° |
| 2026-05-08 04:32 | 12.23597 | -61.28742 | 27911 ft | 422 kts | 242° |
| 2026-05-08 04:32 | 12.22331 | -61.31440 | 27910 ft | 421 kts | 242° |
| 2026-05-08 04:33 | 12.21062 | -61.34134 | 27910 ft | 422 kts | 242° |
| 2026-05-08 04:33 | 12.19785 | -61.36829 | 27913 ft | 423 kts | 242° |
| 2026-05-08 04:33 | 12.18503 | -61.39531 | 27910 ft | 423 kts | 242° |
| 2026-05-08 04:33 | 12.17250 | -61.42202 | 27911 ft | 421 kts | 242° |
| 2026-05-08 04:34 | 12.15982 | -61.44898 | 27909 ft | 420 kts | 242° |
| 2026-05-08 04:34 | 12.14724 | -61.47559 | 27911 ft | 422 kts | 242° |
| 2026-05-08 04:34 | 12.13446 | -61.50285 | 27914 ft | 423 kts | 243° |
| 2026-05-08 04:34 | 12.12195 | -61.52958 | 27911 ft | 418 kts | 243° |
| 2026-05-08 04:35 | 12.10936 | -61.55643 | 27909 ft | 413 kts | 243° |
| 2026-05-08 04:35 | 12.09716 | -61.58245 | 27907 ft | 412 kts | 242° |
| 2026-05-08 04:35 | 12.08460 | -61.60903 | 27909 ft | 414 kts | 242° |
| 2026-05-08 04:35 | 12.07201 | -61.63549 | 27912 ft | 417 kts | 242° |
| 2026-05-08 04:36 | 12.05939 | -61.66196 | 27914 ft | 420 kts | 242° |
| 2026-05-08 04:36 | 12.04653 | -61.68917 | 27914 ft | 423 kts | 242° |
| 2026-05-08 04:36 | 12.03385 | -61.71630 | 27849 ft | 426 kts | 242° |
| 2026-05-08 04:36 | 12.02386 | -61.73761 | 27759 ft | 429 kts | 242° |
| 2026-05-08 04:37 | 12.01098 | -61.76495 | 27683 ft | 427 kts | 242° |
| 2026-05-08 04:37 | 11.99804 | -61.79231 | 27609 ft | 428 kts | 242° |